sensor_id;sensor_type;location;lat;lon;timestamp;temperature;humidity
1578;DHT22;57623;53.608;10.004;2022-07-29T00:02:02;14.70;99.90
1578;DHT22;57623;53.608;10.004;2022-07-29T00:04:51;14.70;99.90
1578;DHT22;57623;53.608;10.004;2022-07-29T00:07:39;14.70;99.90
1578;DHT22;57623;53.608;10.004;2022-07-29T00:10:28;14.60;99.90
1578;DHT22;57623;53.608;10.004;2022-07-29T00:13:16;14.60;99.90
1578;DHT22;57623;53.608;10.004;2022-07-29T00:16:19;14.50;99.90
1578;DHT22;57623;53.608;10.004;2022-07-29T00:19:07;14.50;99.90
1578;DHT22;57623;53.608;10.004;2022-07-29T00:21:56;14.40;99.90
1578;DHT22;57623;53.608;10.004;2022-07-29T00:24:46;14.40;99.90
1578;DHT22;57623;53.608;10.004;2022-07-29T00:27:35;14.40;99.90
1578;DHT22;57623;53.608;10.004;2022-07-29T00:30:23;14.30;99.90
1578;DHT22;57623;53.608;10.004;2022-07-29T00:33:13;14.30;99.90
1578;DHT22;57623;53.608;10.004;2022-07-29T00:36:02;14.30;99.90
1578;DHT22;57623;53.608;10.004;2022-07-29T00:38:50;14.20;99.90
1578;DHT22;57623;53.608;10.004;2022-07-29T00:41:38;14.20;99.90
1578;DHT22;57623;53.608;10.004;2022-07-29T00:44:26;14.10;99.90
1578;DHT22;57623;53.608;10.004;2022-07-29T00:47:15;14.10;99.90
1578;DHT22;57623;53.608;10.004;2022-07-29T00:50:06;14.00;99.90
1578;DHT22;57623;53.608;10.004;2022-07-29T00:52:55;14.00;99.90
1578;DHT22;57623;53.608;10.004;2022-07-29T00:55:43;13.90;99.90
1578;DHT22;57623;53.608;10.004;2022-07-29T00:58:31;13.80;99.90
1578;DHT22;57623;53.608;10.004;2022-07-29T01:01:20;13.80;99.90
1578;DHT22;57623;53.608;10.004;2022-07-29T01:04:08;13.80;99.90
1578;DHT22;57623;53.608;10.004;2022-07-29T01:06:58;13.70;99.90
1578;DHT22;57623;53.608;10.004;2022-07-29T01:09:47;13.70;99.90
1578;DHT22;57623;53.608;10.004;2022-07-29T01:12:38;13.80;99.90
1578;DHT22;57623;53.608;10.004;2022-07-29T01:15:27;13.70;99.90
1578;DHT22;57623;53.608;10.004;2022-07-29T01:18:18;13.70;99.90
1578;DHT22;57623;53.608;10.004;2022-07-29T01:21:21;13.70;99.90
1578;DHT22;57623;53.608;10.004;2022-07-29T01:24:30;13.60;99.90
1578;DHT22;57623;53.608;10.004;2022-07-29T01:27:38;13.50;99.90
1578;DHT22;57623;53.608;10.004;2022-07-29T01:30:30;13.50;99.90
1578;DHT22;57623;53.608;10.004;2022-07-29T01:33:21;13.50;99.90
1578;DHT22;57623;53.608;10.004;2022-07-29T01:36:32;13.50;99.90
1578;DHT22;57623;53.608;10.004;2022-07-29T01:39:26;13.50;99.90
1578;DHT22;57623;53.608;10.004;2022-07-29T01:42:23;13.50;99.90
1578;DHT22;57623;53.608;10.004;2022-07-29T01:45:10;13.50;99.90
1578;DHT22;57623;53.608;10.004;2022-07-29T01:48:04;13.40;99.90
1578;DHT22;57623;53.608;10.004;2022-07-29T01:50:58;13.50;99.90
1578;DHT22;57623;53.608;10.004;2022-07-29T01:53:53;13.40;99.90
1578;DHT22;57623;53.608;10.004;2022-07-29T01:56:43;13.30;99.90
1578;DHT22;57623;53.608;10.004;2022-07-29T01:59:33;13.40;99.90
1578;DHT22;57623;53.608;10.004;2022-07-29T02:02:23;13.30;99.90
1578;DHT22;57623;53.608;10.004;2022-07-29T02:05:15;13.30;99.90
1578;DHT22;57623;53.608;10.004;2022-07-29T02:08:06;13.30;99.90
1578;DHT22;57623;53.608;10.004;2022-07-29T02:10:55;13.30;99.90
1578;DHT22;57623;53.608;10.004;2022-07-29T02:13:45;13.30;99.90
1578;DHT22;57623;53.608;10.004;2022-07-29T02:16:35;13.30;99.90
1578;DHT22;57623;53.608;10.004;2022-07-29T02:19:26;13.30;99.90
1578;DHT22;57623;53.608;10.004;2022-07-29T02:22:18;13.30;99.90
1578;DHT22;57623;53.608;10.004;2022-07-29T02:25:08;13.30;99.90
1578;DHT22;57623;53.608;10.004;2022-07-29T02:28:00;13.30;99.90
1578;DHT22;57623;53.608;10.004;2022-07-29T02:30:50;13.30;99.90
1578;DHT22;57623;53.608;10.004;2022-07-29T02:33:43;13.30;99.90
1578;DHT22;57623;53.608;10.004;2022-07-29T02:36:32;13.30;99.90
1578;DHT22;57623;53.608;10.004;2022-07-29T02:39:24;13.30;99.90
1578;DHT22;57623;53.608;10.004;2022-07-29T02:42:15;13.30;99.90
1578;DHT22;57623;53.608;10.004;2022-07-29T02:45:05;13.30;99.90
1578;DHT22;57623;53.608;10.004;2022-07-29T02:47:53;13.30;99.90
1578;DHT22;57623;53.608;10.004;2022-07-29T02:50:48;13.30;99.90
1578;DHT22;57623;53.608;10.004;2022-07-29T02:53:38;13.30;99.90
1578;DHT22;57623;53.608;10.004;2022-07-29T02:56:32;13.30;99.90
1578;DHT22;57623;53.608;10.004;2022-07-29T02:59:25;13.30;99.90
1578;DHT22;57623;53.608;10.004;2022-07-29T03:02:15;13.30;99.90
1578;DHT22;57623;53.608;10.004;2022-07-29T03:05:07;13.30;99.90
1578;DHT22;57623;53.608;10.004;2022-07-29T03:08:00;13.30;99.90
1578;DHT22;57623;53.608;10.004;2022-07-29T03:10:49;13.30;99.90
1578;DHT22;57623;53.608;10.004;2022-07-29T03:13:39;13.30;99.90
1578;DHT22;57623;53.608;10.004;2022-07-29T03:16:28;13.30;99.90
1578;DHT22;57623;53.608;10.004;2022-07-29T03:19:17;13.30;99.90
1578;DHT22;57623;53.608;10.004;2022-07-29T03:22:05;13.40;99.90
1578;DHT22;57623;53.608;10.004;2022-07-29T03:24:54;13.30;99.90
1578;DHT22;57623;53.608;10.004;2022-07-29T03:27:43;13.30;99.90
1578;DHT22;57623;53.608;10.004;2022-07-29T03:30:32;13.30;99.90
1578;DHT22;57623;53.608;10.004;2022-07-29T03:33:21;13.30;99.90
1578;DHT22;57623;53.608;10.004;2022-07-29T03:36:09;13.40;99.90
1578;DHT22;57623;53.608;10.004;2022-07-29T03:38:57;13.30;99.90
1578;DHT22;57623;53.608;10.004;2022-07-29T03:41:48;13.40;99.90
1578;DHT22;57623;53.608;10.004;2022-07-29T03:44:37;13.40;99.90
1578;DHT22;57623;53.608;10.004;2022-07-29T03:47:28;13.40;99.90
1578;DHT22;57623;53.608;10.004;2022-07-29T03:50:36;13.40;99.90
1578;DHT22;57623;53.608;10.004;2022-07-29T03:53:25;13.40;99.90
1578;DHT22;57623;53.608;10.004;2022-07-29T03:56:15;13.40;99.90
1578;DHT22;57623;53.608;10.004;2022-07-29T03:59:05;13.40;99.90
1578;DHT22;57623;53.608;10.004;2022-07-29T04:01:55;13.40;99.90
1578;DHT22;57623;53.608;10.004;2022-07-29T04:04:46;13.50;99.90
1578;DHT22;57623;53.608;10.004;2022-07-29T04:07:35;13.50;99.90
1578;DHT22;57623;53.608;10.004;2022-07-29T04:10:23;13.50;99.90
1578;DHT22;57623;53.608;10.004;2022-07-29T04:13:18;13.50;99.90
1578;DHT22;57623;53.608;10.004;2022-07-29T04:16:06;13.50;99.90
1578;DHT22;57623;53.608;10.004;2022-07-29T04:18:55;13.60;99.90
1578;DHT22;57623;53.608;10.004;2022-07-29T04:21:44;13.60;99.90
1578;DHT22;57623;53.608;10.004;2022-07-29T04:24:33;13.60;99.90
1578;DHT22;57623;53.608;10.004;2022-07-29T04:27:22;13.60;99.90
1578;DHT22;57623;53.608;10.004;2022-07-29T04:30:11;13.70;99.90
1578;DHT22;57623;53.608;10.004;2022-07-29T04:32:59;13.70;99.90
1578;DHT22;57623;53.608;10.004;2022-07-29T04:35:48;13.70;99.90
1578;DHT22;57623;53.608;10.004;2022-07-29T04:38:43;13.80;99.90
1578;DHT22;57623;53.608;10.004;2022-07-29T04:41:31;13.80;99.90
1578;DHT22;57623;53.608;10.004;2022-07-29T04:44:20;13.80;99.90
1578;DHT22;57623;53.608;10.004;2022-07-29T04:47:14;13.80;99.90
1578;DHT22;57623;53.608;10.004;2022-07-29T04:50:03;13.90;99.90
1578;DHT22;57623;53.608;10.004;2022-07-29T04:52:52;13.90;99.90
1578;DHT22;57623;53.608;10.004;2022-07-29T04:55:41;13.90;99.90
1578;DHT22;57623;53.608;10.004;2022-07-29T04:58:30;13.90;99.90
1578;DHT22;57623;53.608;10.004;2022-07-29T05:01:18;14.00;99.90
1578;DHT22;57623;53.608;10.004;2022-07-29T05:04:06;14.00;99.90
1578;DHT22;57623;53.608;10.004;2022-07-29T05:06:55;14.00;99.90
1578;DHT22;57623;53.608;10.004;2022-07-29T05:09:43;14.00;99.90
1578;DHT22;57623;53.608;10.004;2022-07-29T05:12:32;14.00;99.90
1578;DHT22;57623;53.608;10.004;2022-07-29T05:15:21;14.10;99.90
1578;DHT22;57623;53.608;10.004;2022-07-29T05:18:09;14.10;99.90
1578;DHT22;57623;53.608;10.004;2022-07-29T05:20:57;14.10;99.90
1578;DHT22;57623;53.608;10.004;2022-07-29T05:23:45;14.10;99.90
1578;DHT22;57623;53.608;10.004;2022-07-29T05:26:33;14.20;99.90
1578;DHT22;57623;53.608;10.004;2022-07-29T05:29:23;14.20;99.90
1578;DHT22;57623;53.608;10.004;2022-07-29T05:32:29;14.20;99.90
1578;DHT22;57623;53.608;10.004;2022-07-29T05:35:17;14.30;99.90
1578;DHT22;57623;53.608;10.004;2022-07-29T05:38:05;14.30;99.90
1578;DHT22;57623;53.608;10.004;2022-07-29T05:40:56;14.40;99.90
1578;DHT22;57623;53.608;10.004;2022-07-29T05:43:44;14.40;99.90
1578;DHT22;57623;53.608;10.004;2022-07-29T05:46:34;14.40;99.90
1578;DHT22;57623;53.608;10.004;2022-07-29T05:49:23;14.50;99.90
1578;DHT22;57623;53.608;10.004;2022-07-29T05:52:13;14.60;99.90
1578;DHT22;57623;53.608;10.004;2022-07-29T05:55:02;14.70;99.90
1578;DHT22;57623;53.608;10.004;2022-07-29T05:57:52;14.70;99.90
1578;DHT22;57623;53.608;10.004;2022-07-29T06:00:40;14.80;99.90
1578;DHT22;57623;53.608;10.004;2022-07-29T06:03:30;14.80;99.90
1578;DHT22;57623;53.608;10.004;2022-07-29T06:06:18;14.90;99.90
1578;DHT22;57623;53.608;10.004;2022-07-29T06:09:07;14.90;99.90
1578;DHT22;57623;53.608;10.004;2022-07-29T06:11:59;15.00;99.90
1578;DHT22;57623;53.608;10.004;2022-07-29T06:14:48;15.10;99.90
1578;DHT22;57623;53.608;10.004;2022-07-29T06:17:40;15.20;99.90
1578;DHT22;57623;53.608;10.004;2022-07-29T06:20:48;15.20;99.90
1578;DHT22;57623;53.608;10.004;2022-07-29T06:23:36;15.30;99.90
1578;DHT22;57623;53.608;10.004;2022-07-29T06:26:25;15.40;99.90
1578;DHT22;57623;53.608;10.004;2022-07-29T06:29:17;15.50;99.90
1578;DHT22;57623;53.608;10.004;2022-07-29T06:32:08;15.50;99.90
1578;DHT22;57623;53.608;10.004;2022-07-29T06:34:56;15.60;99.90
1578;DHT22;57623;53.608;10.004;2022-07-29T06:38:06;15.70;99.90
1578;DHT22;57623;53.608;10.004;2022-07-29T06:41:14;15.80;99.90
1578;DHT22;57623;53.608;10.004;2022-07-29T06:44:03;15.90;99.90
1578;DHT22;57623;53.608;10.004;2022-07-29T06:46:52;16.00;99.90
1578;DHT22;57623;53.608;10.004;2022-07-29T06:49:41;16.00;99.90
1578;DHT22;57623;53.608;10.004;2022-07-29T06:52:30;16.10;99.90
1578;DHT22;57623;53.608;10.004;2022-07-29T06:55:19;16.20;99.90
1578;DHT22;57623;53.608;10.004;2022-07-29T06:58:11;16.30;99.90
1578;DHT22;57623;53.608;10.004;2022-07-29T07:01:02;16.30;99.90
1578;DHT22;57623;53.608;10.004;2022-07-29T07:03:51;16.40;99.90
1578;DHT22;57623;53.608;10.004;2022-07-29T07:06:39;16.50;99.90
1578;DHT22;57623;53.608;10.004;2022-07-29T07:09:29;16.60;99.90
1578;DHT22;57623;53.608;10.004;2022-07-29T07:12:28;16.70;99.90
1578;DHT22;57623;53.608;10.004;2022-07-29T07:15:16;16.80;99.90
1578;DHT22;57623;53.608;10.004;2022-07-29T07:18:24;16.90;99.90
1578;DHT22;57623;53.608;10.004;2022-07-29T07:21:13;16.90;99.90
1578;DHT22;57623;53.608;10.004;2022-07-29T07:24:06;17.00;99.90
1578;DHT22;57623;53.608;10.004;2022-07-29T07:26:54;17.10;99.90
1578;DHT22;57623;53.608;10.004;2022-07-29T07:29:43;17.20;99.90
1578;DHT22;57623;53.608;10.004;2022-07-29T07:32:32;17.30;99.90
1578;DHT22;57623;53.608;10.004;2022-07-29T07:35:20;17.40;99.90
1578;DHT22;57623;53.608;10.004;2022-07-29T07:38:08;17.40;99.90
1578;DHT22;57623;53.608;10.004;2022-07-29T07:40:57;17.50;99.90
1578;DHT22;57623;53.608;10.004;2022-07-29T07:43:45;17.60;99.90
1578;DHT22;57623;53.608;10.004;2022-07-29T07:46:35;17.70;99.90
1578;DHT22;57623;53.608;10.004;2022-07-29T07:49:25;17.70;99.90
1578;DHT22;57623;53.608;10.004;2022-07-29T07:52:14;17.80;99.90
1578;DHT22;57623;53.608;10.004;2022-07-29T07:55:02;17.90;99.90
1578;DHT22;57623;53.608;10.004;2022-07-29T07:57:51;17.90;99.90
1578;DHT22;57623;53.608;10.004;2022-07-29T08:00:39;18.00;99.90
1578;DHT22;57623;53.608;10.004;2022-07-29T08:03:29;18.00;99.90
1578;DHT22;57623;53.608;10.004;2022-07-29T08:06:19;18.00;99.90
1578;DHT22;57623;53.608;10.004;2022-07-29T08:09:07;18.10;99.90
1578;DHT22;57623;53.608;10.004;2022-07-29T08:12:15;18.10;99.90
1578;DHT22;57623;53.608;10.004;2022-07-29T08:15:04;18.20;99.90
1578;DHT22;57623;53.608;10.004;2022-07-29T08:17:54;18.20;99.90
1578;DHT22;57623;53.608;10.004;2022-07-29T08:20:44;18.30;99.90
1578;DHT22;57623;53.608;10.004;2022-07-29T08:23:32;18.40;99.90
1578;DHT22;57623;53.608;10.004;2022-07-29T08:26:35;18.50;99.90
1578;DHT22;57623;53.608;10.004;2022-07-29T08:29:23;18.60;99.90
1578;DHT22;57623;53.608;10.004;2022-07-29T08:32:12;18.60;99.90
1578;DHT22;57623;53.608;10.004;2022-07-29T08:35:20;18.70;99.90
1578;DHT22;57623;53.608;10.004;2022-07-29T08:38:10;18.80;99.90
1578;DHT22;57623;53.608;10.004;2022-07-29T08:40:59;18.90;99.90
1578;DHT22;57623;53.608;10.004;2022-07-29T08:43:48;19.00;99.90
1578;DHT22;57623;53.608;10.004;2022-07-29T08:46:38;19.10;99.90
1578;DHT22;57623;53.608;10.004;2022-07-29T08:49:26;19.30;99.90
1578;DHT22;57623;53.608;10.004;2022-07-29T08:52:19;19.30;99.90
1578;DHT22;57623;53.608;10.004;2022-07-29T08:55:10;19.40;99.90
1578;DHT22;57623;53.608;10.004;2022-07-29T08:58:02;19.50;99.90
1578;DHT22;57623;53.608;10.004;2022-07-29T09:00:52;19.60;99.90
1578;DHT22;57623;53.608;10.004;2022-07-29T09:03:44;19.70;99.90
1578;DHT22;57623;53.608;10.004;2022-07-29T09:06:34;19.80;99.90
1578;DHT22;57623;53.608;10.004;2022-07-29T09:09:24;19.90;99.90
1578;DHT22;57623;53.608;10.004;2022-07-29T09:12:15;20.00;99.90
1578;DHT22;57623;53.608;10.004;2022-07-29T09:15:15;20.10;99.90
1578;DHT22;57623;53.608;10.004;2022-07-29T09:18:05;20.30;99.90
1578;DHT22;57623;53.608;10.004;2022-07-29T09:21:07;20.40;99.90
1578;DHT22;57623;53.608;10.004;2022-07-29T09:24:14;20.60;99.90
1578;DHT22;57623;53.608;10.004;2022-07-29T09:27:03;20.70;99.90
1578;DHT22;57623;53.608;10.004;2022-07-29T09:30:00;20.90;99.90
1578;DHT22;57623;53.608;10.004;2022-07-29T09:32:56;21.00;99.90
1578;DHT22;57623;53.608;10.004;2022-07-29T09:35:45;21.00;99.90
1578;DHT22;57623;53.608;10.004;2022-07-29T09:38:57;21.10;99.90
1578;DHT22;57623;53.608;10.004;2022-07-29T09:41:47;21.20;99.90
1578;DHT22;57623;53.608;10.004;2022-07-29T09:44:43;21.20;99.90
1578;DHT22;57623;53.608;10.004;2022-07-29T09:47:43;21.30;99.90
1578;DHT22;57623;53.608;10.004;2022-07-29T09:50:37;21.40;99.90
1578;DHT22;57623;53.608;10.004;2022-07-29T09:53:31;21.40;99.90
1578;DHT22;57623;53.608;10.004;2022-07-29T09:56:20;21.50;99.90
1578;DHT22;57623;53.608;10.004;2022-07-29T09:59:11;21.50;99.90
1578;DHT22;57623;53.608;10.004;2022-07-29T10:01:59;21.60;99.90
1578;DHT22;57623;53.608;10.004;2022-07-29T10:04:52;21.70;99.90
1578;DHT22;57623;53.608;10.004;2022-07-29T10:07:45;21.70;99.90
1578;DHT22;57623;53.608;10.004;2022-07-29T10:10:41;21.80;99.90
1578;DHT22;57623;53.608;10.004;2022-07-29T10:13:31;21.80;99.90
1578;DHT22;57623;53.608;10.004;2022-07-29T10:16:20;21.90;99.90
1578;DHT22;57623;53.608;10.004;2022-07-29T10:19:09;21.90;99.90
1578;DHT22;57623;53.608;10.004;2022-07-29T10:21:59;21.90;99.90
1578;DHT22;57623;53.608;10.004;2022-07-29T10:24:48;22.00;99.90
1578;DHT22;57623;53.608;10.004;2022-07-29T10:27:37;22.00;99.90
1578;DHT22;57623;53.608;10.004;2022-07-29T10:30:26;22.00;99.90
1578;DHT22;57623;53.608;10.004;2022-07-29T10:33:26;22.10;99.90
1578;DHT22;57623;53.608;10.004;2022-07-29T10:36:29;22.20;99.90
1578;DHT22;57623;53.608;10.004;2022-07-29T10:39:32;22.20;99.90
1578;DHT22;57623;53.608;10.004;2022-07-29T10:42:30;22.30;99.90
1578;DHT22;57623;53.608;10.004;2022-07-29T10:45:21;22.30;99.90
1578;DHT22;57623;53.608;10.004;2022-07-29T10:48:10;22.30;99.90
1578;DHT22;57623;53.608;10.004;2022-07-29T10:51:03;22.40;99.90
1578;DHT22;57623;53.608;10.004;2022-07-29T10:53:53;22.40;99.90
1578;DHT22;57623;53.608;10.004;2022-07-29T10:56:45;22.50;99.90
1578;DHT22;57623;53.608;10.004;2022-07-29T10:59:34;22.50;99.90
1578;DHT22;57623;53.608;10.004;2022-07-29T11:02:45;22.60;99.90
1578;DHT22;57623;53.608;10.004;2022-07-29T11:05:55;22.60;99.90
1578;DHT22;57623;53.608;10.004;2022-07-29T11:09:15;22.70;99.90
1578;DHT22;57623;53.608;10.004;2022-07-29T11:12:48;22.80;99.90
1578;DHT22;57623;53.608;10.004;2022-07-29T11:15:52;22.90;99.90
1578;DHT22;57623;53.608;10.004;2022-07-29T11:19:20;23.00;99.90
1578;DHT22;57623;53.608;10.004;2022-07-29T11:22:31;23.00;99.90
1578;DHT22;57623;53.608;10.004;2022-07-29T11:25:20;23.10;99.90
1578;DHT22;57623;53.608;10.004;2022-07-29T11:28:42;23.20;99.90
1578;DHT22;57623;53.608;10.004;2022-07-29T11:31:38;23.30;99.90
1578;DHT22;57623;53.608;10.004;2022-07-29T11:34:29;23.40;99.90
1578;DHT22;57623;53.608;10.004;2022-07-29T11:37:21;23.60;99.90
1578;DHT22;57623;53.608;10.004;2022-07-29T11:40:15;23.70;99.90
1578;DHT22;57623;53.608;10.004;2022-07-29T11:43:05;23.80;99.90
1578;DHT22;57623;53.608;10.004;2022-07-29T11:45:55;23.90;99.90
1578;DHT22;57623;53.608;10.004;2022-07-29T11:48:44;24.00;99.90
1578;DHT22;57623;53.608;10.004;2022-07-29T11:51:38;24.20;99.90
1578;DHT22;57623;53.608;10.004;2022-07-29T11:54:44;24.20;99.90
1578;DHT22;57623;53.608;10.004;2022-07-29T11:57:48;24.30;99.90
1578;DHT22;57623;53.608;10.004;2022-07-29T12:00:50;24.40;99.90
1578;DHT22;57623;53.608;10.004;2022-07-29T12:03:43;24.40;99.90
1578;DHT22;57623;53.608;10.004;2022-07-29T12:06:31;24.40;99.90
1578;DHT22;57623;53.608;10.004;2022-07-29T12:09:21;24.40;99.90
1578;DHT22;57623;53.608;10.004;2022-07-29T12:12:09;24.40;99.90
1578;DHT22;57623;53.608;10.004;2022-07-29T12:14:58;24.40;99.90
1578;DHT22;57623;53.608;10.004;2022-07-29T12:17:48;24.40;99.90
1578;DHT22;57623;53.608;10.004;2022-07-29T12:20:37;24.60;99.90
1578;DHT22;57623;53.608;10.004;2022-07-29T12:23:26;24.70;99.90
1578;DHT22;57623;53.608;10.004;2022-07-29T12:26:20;24.90;99.90
1578;DHT22;57623;53.608;10.004;2022-07-29T12:29:15;25.10;99.90
1578;DHT22;57623;53.608;10.004;2022-07-29T12:32:20;25.30;99.90
1578;DHT22;57623;53.608;10.004;2022-07-29T12:35:10;25.40;99.90
1578;DHT22;57623;53.608;10.004;2022-07-29T12:38:02;25.50;99.90
1578;DHT22;57623;53.608;10.004;2022-07-29T12:40:53;25.70;99.90
1578;DHT22;57623;53.608;10.004;2022-07-29T12:43:52;25.80;99.90
1578;DHT22;57623;53.608;10.004;2022-07-29T12:46:41;25.90;99.90
1578;DHT22;57623;53.608;10.004;2022-07-29T12:49:29;25.90;99.90
1578;DHT22;57623;53.608;10.004;2022-07-29T12:52:25;26.10;99.90
1578;DHT22;57623;53.608;10.004;2022-07-29T12:55:15;26.20;99.90
1578;DHT22;57623;53.608;10.004;2022-07-29T12:58:03;26.30;99.90
1578;DHT22;57623;53.608;10.004;2022-07-29T13:01:02;26.50;99.90
1578;DHT22;57623;53.608;10.004;2022-07-29T13:04:02;26.60;99.90
1578;DHT22;57623;53.608;10.004;2022-07-29T13:06:58;26.70;99.90
1578;DHT22;57623;53.608;10.004;2022-07-29T13:09:46;26.60;99.90
1578;DHT22;57623;53.608;10.004;2022-07-29T13:12:37;26.60;99.90
1578;DHT22;57623;53.608;10.004;2022-07-29T13:15:25;26.60;99.90
1578;DHT22;57623;53.608;10.004;2022-07-29T13:18:27;26.70;99.90
1578;DHT22;57623;53.608;10.004;2022-07-29T13:21:15;26.80;99.90
1578;DHT22;57623;53.608;10.004;2022-07-29T13:24:06;26.90;99.90
1578;DHT22;57623;53.608;10.004;2022-07-29T13:26:54;27.10;99.90
1578;DHT22;57623;53.608;10.004;2022-07-29T13:29:44;27.20;99.90
1578;DHT22;57623;53.608;10.004;2022-07-29T13:32:33;27.30;99.90
1578;DHT22;57623;53.608;10.004;2022-07-29T13:35:23;27.40;99.90
1578;DHT22;57623;53.608;10.004;2022-07-29T13:38:11;27.50;99.90
1578;DHT22;57623;53.608;10.004;2022-07-29T13:41:00;27.60;99.90
1578;DHT22;57623;53.608;10.004;2022-07-29T13:43:49;27.70;99.90
1578;DHT22;57623;53.608;10.004;2022-07-29T13:46:38;27.80;99.90
1578;DHT22;57623;53.608;10.004;2022-07-29T13:49:27;28.00;99.90
1578;DHT22;57623;53.608;10.004;2022-07-29T13:52:15;27.80;99.90
1578;DHT22;57623;53.608;10.004;2022-07-29T13:55:05;27.80;99.90
1578;DHT22;57623;53.608;10.004;2022-07-29T13:57:53;27.70;99.90
1578;DHT22;57623;53.608;10.004;2022-07-29T14:00:42;27.80;99.90
1578;DHT22;57623;53.608;10.004;2022-07-29T14:03:31;27.70;99.90
1578;DHT22;57623;53.608;10.004;2022-07-29T14:06:19;27.70;99.90
1578;DHT22;57623;53.608;10.004;2022-07-29T14:09:08;27.60;99.90
1578;DHT22;57623;53.608;10.004;2022-07-29T14:11:56;27.60;99.90
1578;DHT22;57623;53.608;10.004;2022-07-29T14:14:45;27.50;99.90
1578;DHT22;57623;53.608;10.004;2022-07-29T14:17:33;27.50;99.90
1578;DHT22;57623;53.608;10.004;2022-07-29T14:20:23;27.60;99.90
1578;DHT22;57623;53.608;10.004;2022-07-29T14:23:11;27.30;99.90
1578;DHT22;57623;53.608;10.004;2022-07-29T14:26:02;27.30;99.90
1578;DHT22;57623;53.608;10.004;2022-07-29T14:28:54;27.30;99.90
1578;DHT22;57623;53.608;10.004;2022-07-29T14:31:42;27.30;99.90
1578;DHT22;57623;53.608;10.004;2022-07-29T14:34:34;27.40;99.90
1578;DHT22;57623;53.608;10.004;2022-07-29T14:37:24;27.40;99.90
1578;DHT22;57623;53.608;10.004;2022-07-29T14:40:12;27.30;99.90
1578;DHT22;57623;53.608;10.004;2022-07-29T14:43:00;27.20;99.90
1578;DHT22;57623;53.608;10.004;2022-07-29T14:45:49;27.20;99.90
1578;DHT22;57623;53.608;10.004;2022-07-29T14:48:40;27.10;99.90
1578;DHT22;57623;53.608;10.004;2022-07-29T14:51:28;27.10;99.90
1578;DHT22;57623;53.608;10.004;2022-07-29T14:54:19;27.10;99.90
1578;DHT22;57623;53.608;10.004;2022-07-29T14:57:08;27.00;99.90
1578;DHT22;57623;53.608;10.004;2022-07-29T14:59:56;27.00;99.90
1578;DHT22;57623;53.608;10.004;2022-07-29T15:02:44;27.00;99.90
1578;DHT22;57623;53.608;10.004;2022-07-29T15:05:48;27.00;99.90
1578;DHT22;57623;53.608;10.004;2022-07-29T15:08:36;27.00;99.90
1578;DHT22;57623;53.608;10.004;2022-07-29T15:11:26;27.10;99.90
1578;DHT22;57623;53.608;10.004;2022-07-29T15:14:14;27.10;99.90
1578;DHT22;57623;53.608;10.004;2022-07-29T15:17:02;27.10;99.90
1578;DHT22;57623;53.608;10.004;2022-07-29T15:19:51;27.10;99.90
1578;DHT22;57623;53.608;10.004;2022-07-29T15:22:42;27.20;99.90
1578;DHT22;57623;53.608;10.004;2022-07-29T15:25:30;27.40;99.90
1578;DHT22;57623;53.608;10.004;2022-07-29T15:28:21;27.50;99.90
1578;DHT22;57623;53.608;10.004;2022-07-29T15:31:09;27.60;99.90
1578;DHT22;57623;53.608;10.004;2022-07-29T15:33:57;27.60;99.90
1578;DHT22;57623;53.608;10.004;2022-07-29T15:36:52;27.60;99.90
1578;DHT22;57623;53.608;10.004;2022-07-29T15:39:40;27.60;99.90
1578;DHT22;57623;53.608;10.004;2022-07-29T15:42:28;27.60;99.90
1578;DHT22;57623;53.608;10.004;2022-07-29T15:45:18;27.40;99.90
1578;DHT22;57623;53.608;10.004;2022-07-29T15:48:08;27.30;99.90
1578;DHT22;57623;53.608;10.004;2022-07-29T15:51:00;27.30;99.90
1578;DHT22;57623;53.608;10.004;2022-07-29T15:53:49;27.40;99.90
1578;DHT22;57623;53.608;10.004;2022-07-29T15:56:39;27.40;99.90
1578;DHT22;57623;53.608;10.004;2022-07-29T15:59:28;27.50;99.90
1578;DHT22;57623;53.608;10.004;2022-07-29T16:02:18;27.60;99.90
1578;DHT22;57623;53.608;10.004;2022-07-29T16:05:08;27.60;99.90
1578;DHT22;57623;53.608;10.004;2022-07-29T16:07:57;27.60;99.90
1578;DHT22;57623;53.608;10.004;2022-07-29T16:10:46;27.60;99.90
1578;DHT22;57623;53.608;10.004;2022-07-29T16:13:34;27.60;99.90
1578;DHT22;57623;53.608;10.004;2022-07-29T16:16:23;27.60;99.90
1578;DHT22;57623;53.608;10.004;2022-07-29T16:19:13;27.50;99.90
1578;DHT22;57623;53.608;10.004;2022-07-29T16:22:01;27.40;99.90
1578;DHT22;57623;53.608;10.004;2022-07-29T16:24:49;27.40;99.90
1578;DHT22;57623;53.608;10.004;2022-07-29T16:27:37;27.30;99.90
1578;DHT22;57623;53.608;10.004;2022-07-29T16:30:26;27.30;99.90
1578;DHT22;57623;53.608;10.004;2022-07-29T16:33:14;27.10;99.90
1578;DHT22;57623;53.608;10.004;2022-07-29T16:36:04;27.00;99.90
1578;DHT22;57623;53.608;10.004;2022-07-29T16:38:53;26.90;99.90
1578;DHT22;57623;53.608;10.004;2022-07-29T16:41:41;26.80;99.90
1578;DHT22;57623;53.608;10.004;2022-07-29T16:44:29;26.80;99.90
1578;DHT22;57623;53.608;10.004;2022-07-29T16:47:17;26.70;99.90
1578;DHT22;57623;53.608;10.004;2022-07-29T16:50:07;26.70;99.90
1578;DHT22;57623;53.608;10.004;2022-07-29T16:52:57;26.60;99.90
1578;DHT22;57623;53.608;10.004;2022-07-29T16:55:46;26.40;99.90
1578;DHT22;57623;53.608;10.004;2022-07-29T16:58:34;26.30;99.90
1578;DHT22;57623;53.608;10.004;2022-07-29T17:01:27;26.20;99.90
1578;DHT22;57623;53.608;10.004;2022-07-29T17:04:20;26.10;99.90
1578;DHT22;57623;53.608;10.004;2022-07-29T17:07:09;25.90;99.90
1578;DHT22;57623;53.608;10.004;2022-07-29T17:09:58;25.80;99.90
1578;DHT22;57623;53.608;10.004;2022-07-29T17:12:50;25.70;99.90
1578;DHT22;57623;53.608;10.004;2022-07-29T17:15:39;25.60;99.90
1578;DHT22;57623;53.608;10.004;2022-07-29T17:18:28;25.40;99.90
1578;DHT22;57623;53.608;10.004;2022-07-29T17:21:16;25.30;99.90
1578;DHT22;57623;53.608;10.004;2022-07-29T17:24:06;25.20;99.90
1578;DHT22;57623;53.608;10.004;2022-07-29T17:26:56;25.10;99.90
1578;DHT22;57623;53.608;10.004;2022-07-29T17:29:45;24.90;99.90
1578;DHT22;57623;53.608;10.004;2022-07-29T17:32:33;24.80;99.90
1578;DHT22;57623;53.608;10.004;2022-07-29T17:35:24;24.70;99.90
1578;DHT22;57623;53.608;10.004;2022-07-29T17:38:30;24.50;99.90
1578;DHT22;57623;53.608;10.004;2022-07-29T17:41:18;24.30;99.90
1578;DHT22;57623;53.608;10.004;2022-07-29T17:44:08;24.20;99.90
1578;DHT22;57623;53.608;10.004;2022-07-29T17:46:56;24.10;99.90
1578;DHT22;57623;53.608;10.004;2022-07-29T17:49:44;24.00;99.90
1578;DHT22;57623;53.608;10.004;2022-07-29T17:52:33;24.00;99.90
1578;DHT22;57623;53.608;10.004;2022-07-29T17:55:21;23.80;99.90
1578;DHT22;57623;53.608;10.004;2022-07-29T17:58:10;23.80;99.90
1578;DHT22;57623;53.608;10.004;2022-07-29T18:00:59;23.70;99.90
1578;DHT22;57623;53.608;10.004;2022-07-29T18:03:48;23.70;99.90